< < Back
Terminal Aerodrome Forecast


Current Version              Previous Versions:   1  2  3  4  5  6  7  8  9  

Terminal Aerodrome Forecast

321
FTUS44 KBMX 082352
TAFTCL
TAF
KTCL 082352Z 0900/0924 30014G25KT P6SM OVC090
     FM090100 29009KT P6SM OVC050
     FM091500 29012G18KT P6SM OVC050=

Latest METAR

000
SAUS70 KWBC 090300 RRL
MTRTCL
METAR KTCL 090253Z AUTO 25005KT 10SM FEW080 03/M05 A2998 RMK AO2 SLP150
T00331050 50002


USA.gov is the U.S. government's official web portal to all federal, state and local government web resources and services.